Time;durP1;ratioP1;P1;durP2;ratioP2;P2;SDS_P1;SDS_P2;PMS_P1;PMS_P2;Temp;Humidity;BMP_temperature;BMP_pressure;BME280_temperature;BME280_humidity;BME280_pressure;Samples;Min_cycle;Max_cycle;Signal;HPM_P1;HPM_P2
2022/05/19 00:02:15;;;;;;;;;;;;;;;17.57;80.93;101751.97;4895320;29;20032;-68
2022/05/19 00:04:41;;;;;;;34.75;20.08;;;;;;;17.68;80.58;101744.88;4896518;29;20687;-68
2022/05/19 00:07:08;;;;;;;34.65;18.67;;;;;;;17.54;80.75;101743.25;4898443;29;20068;-67
2022/05/19 00:09:34;;;;;;;33.40;19.65;;;;;;;17.75;80.52;101747.00;4899414;29;20029;-68
2022/05/19 00:12:03;;;;;;;33.95;18.55;;;;;;;17.48;81.45;101739.22;4913129;29;20568;-67
2022/05/19 00:14:28;;;;;;;29.80;18.65;;;;;;;17.51;81.25;101738.09;4900445;29;20056;-68
2022/05/19 00:16:56;;;;;;;37.22;20.92;;;;;;;17.57;80.93;101745.69;4917950;29;20040;-68
2022/05/19 00:19:22;;;;;;;34.38;20.23;;;;;;;17.60;80.81;101730.16;4900531;29;20595;-68
2022/05/19 00:21:48;;;;;;;35.33;20.05;;;;;;;17.66;80.92;101736.03;4918037;29;20847;-68
2022/05/19 00:24:14;;;;;;;35.50;21.58;;;;;;;17.75;80.36;101730.81;4916312;29;20044;-68
2022/05/19 00:26:41;;;;;;;32.13;20.13;;;;;;;17.69;80.69;101725.88;4915167;29;20040;-67
2022/05/19 00:29:06;;;;;;;37.20;21.08;;;;;;;17.73;80.56;101732.78;4897934;29;20036;-68
2022/05/19 00:31:32;;;;;;;30.50;19.50;;;;;;;17.57;80.89;101733.09;4898972;29;20863;-68
2022/05/19 00:33:59;;;;;;;31.85;20.00;;;;;;;17.65;80.83;101726.22;4899017;29;20055;-67
2022/05/19 00:36:25;;;;;;;31.70;19.65;;;;;;;17.41;81.75;101720.91;4898458;29;20770;-68
2022/05/19 00:38:50;;;;;;;34.80;21.58;;;;;;;17.58;81.31;101718.63;4899310;29;20052;-67
2022/05/19 00:41:17;;;;;;;38.17;21.98;;;;;;;17.63;81.64;101718.28;4898510;29;20035;-67
2022/05/19 00:43:57;;;;;;;35.90;21.17;;;;;;;17.64;81.44;101719.13;4898900;29;20913;-67
2022/05/19 00:46:30;;;;;;;34.45;21.52;;;;;;;17.75;81.06;101720.00;4897027;29;20834;-67
2022/05/19 00:49:19;;;;;;;28.20;19.95;;;;;;;17.74;80.90;101715.59;4893400;29;20036;-67
2022/05/19 00:51:54;;;;;;;34.92;19.85;;;;;;;17.76;80.98;101713.63;4896958;29;20059;-67
2022/05/19 00:54:25;;;;;;;33.35;19.25;;;;;;;17.61;81.36;101704.88;4894582;29;20044;-67
2022/05/19 00:56:59;;;;;;;37.72;21.35;;;;;;;17.52;81.40;101708.34;4896411;29;20102;-67
2022/05/19 00:59:41;;;;;;;30.83;19.23;;;;;;;17.23;82.13;101707.06;4913901;29;20130;-67
2022/05/19 01:02:10;;;;;;;36.50;21.88;;;;;;;17.08;82.03;101709.09;4915458;29;20044;-67
2022/05/19 01:04:44;;;;;;;34.80;20.83;;;;;;;16.89;81.95;101708.78;4897856;29;20051;-66
2022/05/19 01:07:21;;;;;;;39.05;21.85;;;;;;;16.99;81.99;101697.19;4915227;29;20071;-67
2022/05/19 01:09:48;;;;;;;35.60;22.10;;;;;;;17.01;82.83;101700.59;4915795;29;20040;-67
2022/05/19 01:12:15;;;;;;;31.38;21.80;;;;;;;16.96;83.03;101694.69;4914649;29;20478;-67
2022/05/19 01:14:41;;;;;;;35.75;21.55;;;;;;;16.96;84.01;101691.16;4916207;29;20040;-67
2022/05/19 01:17:07;;;;;;;42.35;23.35;;;;;;;17.01;84.07;101689.81;4914694;29;20032;-67
2022/05/19 01:19:42;;;;;;;38.97;24.00;;;;;;;17.14;83.61;101676.28;4898635;29;20028;-68
2022/05/19 01:22:22;;;;;;;41.50;23.02;;;;;;;17.13;83.57;101684.50;4898521;29;20787;-67
2022/05/19 01:24:59;;;;;;;34.83;22.35;;;;;;;17.19;83.40;101687.56;4916109;29;20039;-68
2022/05/19 01:27:24;;;;;;;32.70;21.98;;;;;;;17.20;83.10;101681.19;4906083;29;20742;-68
2022/05/19 01:29:50;;;;;;;35.33;22.10;;;;;;;17.17;83.54;101684.13;4880207;29;20047;-68
2022/05/19 01:32:24;;;;;;;33.28;22.80;;;;;;;17.16;83.03;101678.84;4896403;29;20071;-68
2022/05/19 01:34:50;;;;;;;39.75;22.88;;;;;;;16.96;84.51;101673.16;4897504;29;20087;-68
2022/05/19 01:37:15;;;;;;;31.20;21.35;;;;;;;16.98;84.58;101668.53;4896875;29;20048;-68
2022/05/19 01:40:03;;;;;;;35.72;23.65;;;;;;;16.90;84.85;101670.94;4879485;29;20159;-68
2022/05/19 01:43:07;;;;;;;41.53;25.40;;;;;;;17.00;84.70;101669.25;4896700;29;20043;-68
2022/05/19 01:46:03;;;;;;;46.65;23.83;;;;;;;17.04;84.19;101669.88;4858198;29;20151;-67
2022/05/19 01:48:53;;;;;;;40.72;24.98;;;;;;;16.96;84.79;101661.50;4896331;29;20086;-67
2022/05/19 01:51:24;;;;;;;40.80;24.83;;;;;;;16.86;85.35;101652.44;4894770;29;20044;-67
2022/05/19 01:54:13;;;;;;;40.00;22.67;;;;;;;16.92;84.82;101655.53;4864543;29;20820;-67
2022/05/19 01:56:57;;;;;;;39.42;23.85;;;;;;;16.95;84.90;101646.34;4897570;29;20063;-68
2022/05/19 01:59:32;;;;;;;41.80;24.60;;;;;;;16.97;84.71;101639.00;4879113;29;20111;-68
2022/05/19 02:02:29;;;;;;;38.15;23.95;;;;;;;17.04;84.25;101646.47;4896870;29;20043;-67
2022/05/19 02:05:06;;;;;;;40.97;24.75;;;;;;;17.05;83.90;101641.94;4897414;29;20052;-67
2022/05/19 02:07:36;;;;;;;37.88;24.75;;;;;;;16.98;84.43;101643.41;4897437;29;20900;-69
2022/05/19 02:10:09;;;;;;;42.22;24.58;;;;;;;16.88;84.68;101637.88;4896976;29;20051;-68
2022/05/19 02:12:37;;;;;;;39.47;25.25;;;;;;;16.92;84.54;101638.47;4897703;29;20044;-68
2022/05/19 02:15:07;;;;;;;39.00;23.58;;;;;;;16.82;85.15;101641.91;4880214;29;20064;-67
2022/05/19 02:17:33;;;;;;;37.55;22.80;;;;;;;16.80;85.28;101632.22;4896928;29;20051;-67
2022/05/19 02:20:07;;;;;;;34.72;23.27;;;;;;;16.81;85.15;101632.09;4897220;29;20040;-67
2022/05/19 02:22:38;;;;;;;39.90;24.23;;;;;;;16.66;84.85;101624.28;4912727;29;20043;-67
2022/05/19 02:25:17;;;;;;;33.60;21.58;;;;;;;16.64;84.40;101619.03;4915024;29;20094;-67
2022/05/19 02:28:31;;;;;;;38.80;22.50;;;;;;;16.42;84.54;101619.81;4894844;29;20086;-67
2022/05/19 02:30:57;;;;;;;32.58;20.35;;;;;;;16.29;84.25;101627.94;4855448;29;20236;-67
2022/05/19 02:33:23;;;;;;;34.55;22.13;;;;;;;16.26;84.37;101613.84;4856205;29;20064;-67
2022/05/19 02:35:49;;;;;;;35.83;22.80;;;;;;;16.21;84.49;101611.50;4841340;29;20657;-67
2022/05/19 02:38:16;;;;;;;42.30;22.80;;;;;;;16.35;84.42;101613.16;4854980;29;20096;-67
2022/05/19 02:40:42;;;;;;;35.75;23.73;;;;;;;16.30;85.76;101609.97;4855651;29;20095;-67
2022/05/19 02:43:09;;;;;;;42.95;25.50;;;;;;;16.39;86.41;101611.09;4855324;29;20491;-67
2022/05/19 02:45:35;;;;;;;41.25;25.02;;;;;;;16.35;85.81;101609.59;4841455;29;20199;-67
2022/05/19 02:48:00;;;;;;;36.08;23.55;;;;;;;16.23;85.56;101606.88;4856498;29;20052;-67
2022/05/19 02:50:27;;;;;;;38.40;23.63;;;;;;;16.20;85.41;101604.41;4840255;29;20236;-67
2022/05/19 02:52:52;;;;;;;36.58;23.27;;;;;;;16.16;85.15;101620.88;4841407;29;20067;-67
2022/05/19 02:55:18;;;;;;;34.40;22.42;;;;;;;16.08;85.86;101612.53;4840063;29;20049;-67
2022/05/19 02:57:45;;;;;;;37.75;24.73;;;;;;;16.33;85.62;101623.19;4840714;29;20067;-66
2022/05/19 03:00:14;;;;;;;32.40;22.42;;;;;;;16.67;84.72;101629.59;4855641;29;20240;-67
2022/05/19 03:02:41;;;;;;;32.45;20.98;;;;;;;16.81;84.58;101628.53;4854900;29;20471;-67
2022/05/19 03:05:09;;;;;;;29.13;17.70;;;;;;;17.33;82.05;101622.63;4872629;29;20982;-67
2022/05/19 03:07:34;;;;;;;24.13;17.08;;;;;;;17.46;81.92;101627.88;4895969;29;20047;-67
2022/05/19 03:10:00;;;;;;;29.95;16.58;;;;;;;17.58;81.14;101628.78;4895966;29;20834;-67
2022/05/19 03:12:25;;;;;;;22.55;16.17;;;;;;;17.72;80.47;101630.31;4880830;29;20074;-67
2022/05/19 03:14:51;;;;;;;22.23;14.45;;;;;;;17.95;79.30;101625.81;4896773;29;20130;-67
2022/05/19 03:17:16;;;;;;;20.92;14.13;;;;;;;17.97;78.84;101634.63;4898082;29;20058;-67
2022/05/19 03:19:42;;;;;;;23.30;14.18;;;;;;;18.01;78.77;101631.53;4915676;29;20048;-67
2022/05/19 03:22:07;;;;;;;18.23;13.32;;;;;;;17.94;79.18;101629.50;4913782;29;20035;-67
2022/05/19 03:24:33;;;;;;;21.35;14.15;;;;;;;17.90;79.15;101625.31;4915098;29;20040;-67
2022/05/19 03:26:59;;;;;;;22.95;14.05;;;;;;;17.91;78.96;101632.44;4909361;29;20135;-69
2022/05/19 03:29:25;;;;;;;21.77;13.32;;;;;;;18.02;78.26;101629.69;4895386;29;20123;-68
2022/05/19 03:31:51;;;;;;;19.38;12.77;;;;;;;17.93;78.61;101634.03;4895440;29;20098;-69
2022/05/19 03:34:17;;;;;;;17.50;12.43;;;;;;;18.07;77.63;101636.47;4895241;29;20040;-68
2022/05/19 03:36:46;;;;;;;20.33;13.40;;;;;;;18.10;77.55;101633.50;4908756;29;20158;-69
2022/05/19 03:39:13;;;;;;;23.03;12.47;;;;;;;18.01;77.96;101641.50;4913714;29;20150;-69
2022/05/19 03:41:39;;;;;;;17.05;12.85;;;;;;;18.00;77.76;101645.19;4896482;29;20968;-68
2022/05/19 03:44:08;;;;;;;19.27;12.82;;;;;;;17.85;78.69;101634.66;4894831;29;20776;-68
2022/05/19 03:46:34;;;;;;;16.35;12.00;;;;;;;17.92;78.59;101643.09;4914451;29;20039;-68
2022/05/19 03:48:59;;;;;;;18.95;11.93;;;;;;;18.05;77.50;101654.59;4897138;29;20054;-68
2022/05/19 03:51:27;;;;;;;13.73;9.55;;;;;;;18.26;76.22;101670.88;4914103;29;20146;-68
2022/05/19 03:53:54;;;;;;;13.82;9.77;;;;;;;18.60;74.90;101784.25;4914333;29;20185;-68
2022/05/19 03:56:21;;;;;;;25.40;15.25;;;;;;;18.57;75.79;101776.38;4911984;29;20994;-68
2022/05/19 03:58:48;;;;;;;18.20;13.45;;;;;;;18.93;72.60;101691.44;4916273;29;20032;-68
2022/05/19 04:01:14;;;;;;;23.17;14.18;;;;;;;18.79;74.88;101748.50;4913504;29;20059;-68
2022/05/19 04:03:40;;;;;;;18.95;12.27;;;;;;;19.08;72.32;101754.16;4915690;29;20046;-68
2022/05/19 04:06:06;;;;;;;20.92;13.43;;;;;;;19.03;72.68;101746.44;4908741;29;20036;-66
2022/05/19 04:08:32;;;;;;;19.05;11.68;;;;;;;19.16;71.48;101743.53;4913976;29;20169;-67
2022/05/19 04:10:58;;;;;;;19.77;12.07;;;;;;;19.23;70.94;101739.31;4914671;29;20101;-67
2022/05/19 04:13:23;;;;;;;17.02;11.25;;;;;;;19.22;71.69;101752.94;4908301;29;20043;-67
2022/05/19 04:15:49;;;;;;;20.48;11.40;;;;;;;19.31;70.65;101758.44;4914486;29;20086;-67
2022/05/19 04:18:14;;;;;;;17.85;10.27;;;;;;;19.37;70.48;101757.91;4891837;29;20058;-67
2022/05/19 04:20:40;;;;;;;18.65;11.07;;;;;;;19.32;70.84;101753.88;4914349;29;20048;-67
2022/05/19 04:23:06;;;;;;;23.65;10.40;;;;;;;19.48;69.90;101765.13;4914444;29;20047;-67
2022/05/19 04:25:31;;;;;;;12.57;9.80;;;;;;;19.59;69.54;101762.38;4915780;29;20208;-67
2022/05/19 04:27:58;;;;;;;14.55;10.25;;;;;;;19.63;69.57;101755.69;4893971;29;20107;-67
2022/05/19 04:30:24;;;;;;;18.25;10.70;;;;;;;19.62;69.69;101761.22;4895744;29;20044;-67
2022/05/19 04:32:52;;;;;;;18.48;10.90;;;;;;;19.65;70.18;101760.97;4895740;29;20765;-67
2022/05/19 04:35:18;;;;;;;18.00;11.05;;;;;;;19.70;70.23;101765.97;4895351;29;20087;-67
2022/05/19 04:37:44;;;;;;;19.38;12.63;;;;;;;19.73;70.14;101771.13;4895505;29;20146;-67
2022/05/19 04:40:10;;;;;;;17.77;11.93;;;;;;;19.69;70.63;101758.88;4912617;29;20676;-67
2022/05/19 04:42:36;;;;;;;19.20;11.95;;;;;;;19.89;70.25;101753.41;4912763;29;20040;-67
2022/05/19 04:45:02;;;;;;;26.33;13.48;;;;;;;19.83;70.40;101759.38;4913128;29;20051;-67
2022/05/19 04:47:29;;;;;;;21.17;13.95;;;;;;;19.86;71.23;101763.63;4913607;29;20064;-67
2022/05/19 04:49:55;;;;;;;20.20;14.30;;;;;;;19.76;71.20;101751.91;4890410;29;20370;-68
2022/05/19 04:52:20;;;;;;;20.67;13.63;;;;;;;19.86;70.64;101756.38;4906719;29;20307;-68
2022/05/19 04:54:46;;;;;;;19.98;14.00;;;;;;;19.87;70.70;101763.50;4898790;29;20036;-68
2022/05/19 04:57:12;;;;;;;18.50;12.43;;;;;;;20.01;70.56;101758.72;4915116;29;20055;-68
2022/05/19 04:59:39;;;;;;;17.90;12.27;;;;;;;19.90;71.41;101760.53;4915095;29;20100;-68
2022/05/19 05:02:05;;;;;;;20.05;14.20;;;;;;;20.08;69.83;101754.47;4913331;29;20043;-67
2022/05/19 05:04:31;;;;;;;20.38;13.77;;;;;;;20.34;69.33;101744.88;4916009;29;20031;-68
2022/05/19 05:06:57;;;;;;;18.67;12.70;;;;;;;20.56;68.73;101748.38;4915899;29;20036;-68
2022/05/19 05:09:23;;;;;;;17.60;12.38;;;;;;;20.66;69.76;101749.25;4915998;29;20839;-68
2022/05/19 05:11:48;;;;;;;19.73;12.90;;;;;;;20.54;69.58;101732.25;4913729;29;20439;-68
2022/05/19 05:14:16;;;;;;;21.58;13.35;;;;;;;20.84;68.91;101736.72;4913313;29;21079;-68
2022/05/19 05:16:43;;;;;;;18.33;12.90;;;;;;;20.77;69.45;101748.25;4911891;29;20079;-68
2022/05/19 05:19:09;;;;;;;19.27;12.30;;;;;;;21.35;68.00;101743.72;4912597;29;20458;-68
2022/05/19 05:21:34;;;;;;;21.23;12.45;;;;;;;21.49;66.99;101742.41;4911010;29;20071;-68
2022/05/19 05:24:00;;;;;;;16.23;11.77;;;;;;;21.54;65.92;101747.41;4893276;29;20583;-68
2022/05/19 05:26:26;;;;;;;15.07;11.57;;;;;;;21.65;66.60;101748.06;4911969;29;20047;-68
2022/05/19 05:28:51;;;;;;;19.25;11.93;;;;;;;22.20;65.91;101739.16;4912493;29;20123;-68
2022/05/19 05:31:17;;;;;;;15.48;11.27;;;;;;;22.06;66.72;101747.78;4894433;29;20036;-68
2022/05/19 05:33:43;;;;;;;20.55;12.38;;;;;;;22.04;64.50;101750.66;4894973;29;20040;-67
2022/05/19 05:36:08;;;;;;;16.58;10.73;;;;;;;22.05;64.46;101754.22;4911899;29;20035;-67
2022/05/19 05:38:34;;;;;;;18.70;11.43;;;;;;;22.16;65.06;101759.47;4912840;29;20035;-68
2022/05/19 05:41:02;;;;;;;12.40;9.10;;;;;;;22.43;64.29;101774.91;4913329;29;20727;-67
2022/05/19 05:43:28;;;;;;;16.15;9.98;;;;;;;22.38;63.70;101769.94;4913890;29;20035;-68
2022/05/19 05:46:04;;;;;;;13.90;10.15;;;;;;;22.32;64.18;101764.25;4913803;29;20091;-66
2022/05/19 05:48:30;;;;;;;11.93;9.18;;;;;;;22.56;64.70;101759.13;4914402;29;20717;-67
2022/05/19 05:50:55;;;;;;;11.98;9.52;;;;;;;22.52;62.80;101762.28;4913644;29;20048;-67
2022/05/19 05:53:20;;;;;;;15.85;10.45;;;;;;;22.91;63.05;101760.19;4912085;29;20217;-66
2022/05/19 05:55:46;;;;;;;13.75;8.90;;;;;;;22.95;62.81;101751.56;4880747;29;20043;-67
2022/05/19 05:58:11;;;;;;;17.13;9.27;;;;;;;22.86;63.70;101751.59;4894552;29;20040;-66
2022/05/19 06:00:38;;;;;;;14.43;8.85;;;;;;;23.05;63.13;101748.75;4896338;29;20055;-67
2022/05/19 06:03:05;;;;;;;10.82;7.80;;;;;;;23.01;61.90;101739.19;4910220;29;20572;-67
2022/05/19 06:05:30;;;;;;;11.10;6.40;;;;;;;22.49;61.37;101752.56;4912399;29;20048;-66
2022/05/19 06:07:56;;;;;;;12.98;7.22;;;;;;;22.93;60.79;101750.00;4894909;29;20488;-66
2022/05/19 06:10:21;;;;;;;9.93;6.85;;;;;;;22.67;62.15;101749.88;4913345;29;20075;-67
2022/05/19 06:12:47;;;;;;;9.93;6.38;;;;;;;22.71;60.76;101743.13;4914244;29;20050;-66
2022/05/19 06:15:14;;;;;;;7.53;5.80;;;;;;;22.73;60.38;101728.34;4913868;29;20048;-67
2022/05/19 06:17:40;;;;;;;8.73;5.32;;;;;;;22.93;58.94;101720.94;4915485;29;20401;-66
2022/05/19 06:20:13;;;;;;;8.13;5.68;;;;;;;23.34;59.99;101707.63;4897400;29;20047;-66
2022/05/19 06:22:39;;;;;;;10.60;4.75;;;;;;;23.55;55.81;101692.81;4913877;29;20048;-67
2022/05/19 06:25:06;;;;;;;7.85;4.60;;;;;;;23.50;56.59;101691.44;4896006;29;20032;-66
2022/05/19 06:27:31;;;;;;;7.53;4.53;;;;;;;23.15;57.29;101673.34;4913485;29;20039;-67
2022/05/19 06:29:57;;;;;;;8.57;3.85;;;;;;;23.38;55.89;101678.25;4912804;29;20127;-65
2022/05/19 06:32:23;;;;;;;6.57;3.70;;;;;;;23.65;56.24;101686.28;4912779;29;20031;-68
2022/05/19 06:34:49;;;;;;;5.32;3.70;;;;;;;23.59;55.73;101684.16;4896295;29;20493;-68
2022/05/19 06:37:14;;;;;;;5.13;3.95;;;;;;;23.65;59.68;101705.34;4909178;29;20040;-68
2022/05/19 06:39:40;;;;;;;8.63;4.22;;;;;;;23.94;58.03;101694.06;4914526;29;20417;-65
2022/05/19 06:42:11;;;;;;;7.10;4.18;;;;;;;23.88;56.96;101696.59;4911955;29;20039;-66
2022/05/19 06:44:39;;;;;;;7.05;4.45;;;;;;;23.45;59.16;101687.50;4912695;29;20032;-66
2022/05/19 06:47:13;;;;;;;5.32;3.90;;;;;;;23.50;58.87;101694.16;4912622;29;20051;-68
2022/05/19 06:49:43;;;;;;;4.93;3.42;;;;;;;22.96;60.04;101665.38;4914262;29;20039;-65
2022/05/19 06:52:14;;;;;;;5.28;3.88;;;;;;;22.63;62.76;101647.88;4911389;29;20036;-68
2022/05/19 06:54:44;;;;;;;7.38;5.72;;;;;;;22.09;64.23;101655.09;4912327;29;20051;-68
2022/05/19 06:57:09;;;;;;;23.52;6.07;;;;;;;21.73;64.94;101642.28;4910765;29;20677;-67
2022/05/19 06:59:35;;;;;;;9.30;6.10;;;;;;;21.43;67.72;101609.97;4910892;29;20031;-68
2022/05/19 07:02:00;;;;;;;8.20;6.47;;;;;;;21.16;72.25;101530.25;4895817;29;20032;-67
2022/05/19 07:04:26;;;;;;;8.95;6.20;;;;;;;21.06;70.99;101564.69;4911667;29;20042;-68
2022/05/19 07:06:52;;;;;;;8.38;5.95;;;;;;;21.17;70.07;101601.63;4894061;29;20036;-67
2022/05/19 07:09:17;;;;;;;12.82;6.68;;;;;;;21.62;70.67;101630.78;4894066;29;20039;-68
2022/05/19 07:11:43;;;;;;;8.57;5.72;;;;;;;22.11;70.57;101648.53;4912875;29;20150;-68
2022/05/19 07:14:09;;;;;;;9.73;5.75;;;;;;;22.35;69.32;101650.69;4894501;29;20047;-68
2022/05/19 07:16:35;;;;;;;10.05;5.70;;;;;;;22.56;67.22;101646.78;4910894;29;20050;-68
2022/05/19 07:21:57;;;;;;;9.07;6.63;;;;;;;22.64;66.52;101630.53;4854399;29;20052;-66
2022/05/19 07:24:23;;;;;;;8.88;5.72;;;;;;;22.68;68.26;101619.19;4853226;29;20036;-66
2022/05/19 07:26:54;;;;;;;8.30;5.78;;;;;;;22.84;66.17;101620.34;4858889;29;20052;-66
2022/05/19 07:29:21;;;;;;;7.20;5.85;;;;;;;22.93;64.81;101619.41;4856064;29;20052;-66
2022/05/19 07:31:47;;;;;;;7.95;5.25;;;;;;;22.88;66.55;101630.78;4838992;29;20175;-66
2022/05/19 07:34:15;;;;;;;6.00;5.32;;;;;;;22.59;67.77;101632.88;4853178;29;20044;-66
2022/05/19 07:36:41;;;;;;;7.57;4.57;;;;;;;22.85;64.42;101633.81;4855268;29;20045;-67
2022/05/19 07:39:08;;;;;;;8.25;4.85;;;;;;;22.76;66.88;101645.63;4853915;29;20162;-67
2022/05/19 07:41:34;;;;;;;8.77;5.15;;;;;;;22.80;66.92;101651.59;4853649;29;20961;-67
2022/05/19 07:44:02;;;;;;;6.68;4.88;;;;;;;22.84;66.67;101629.38;4853149;29;20080;-67
2022/05/19 07:46:28;;;;;;;4.65;4.18;;;;;;;22.66;66.81;101609.50;4854296;29;20049;-67
2022/05/19 07:48:55;;;;;;;7.10;4.45;;;;;;;22.99;67.27;101626.94;4854631;29;20053;-66
2022/05/19 07:51:22;;;;;;;5.15;4.38;;;;;;;23.57;66.24;101633.59;4852301;29;20307;-66
2022/05/19 07:53:49;;;;;;;7.60;4.70;;;;;;;23.67;63.73;101635.22;4853541;29;20889;-66
2022/05/19 07:56:15;;;;;;;5.55;4.15;;;;;;;23.62;64.05;101629.38;4852683;29;20060;-67
2022/05/19 07:58:40;;;;;;;6.93;4.07;;;;;;;23.70;62.90;101642.22;4881444;29;20269;-66
2022/05/19 08:01:07;;;;;;;6.00;4.15;;;;;;;23.44;62.29;101650.38;4913141;29;20677;-66
2022/05/19 08:03:34;;;;;;;5.78;3.40;;;;;;;23.41;63.18;101646.13;4913576;29;20047;-66
2022/05/19 08:06:00;;;;;;;4.05;3.65;;;;;;;23.64;61.21;101638.25;4913173;29;20063;-66
2022/05/19 08:08:26;;;;;;;4.22;3.70;;;;;;;23.95;62.71;101619.50;4895437;29;20028;-66
2022/05/19 08:10:57;;;;;;;5.10;3.50;;;;;;;23.95;64.46;101624.09;4912171;29;20792;-67
2022/05/19 08:16:08;;;;;;;4.22;3.75;;;;;;;23.65;64.57;101612.75;4894038;29;20059;-66
2022/05/19 08:18:33;;;;;;;7.35;4.85;;;;;;;23.44;63.69;101610.38;4909999;29;20063;-66
2022/05/19 08:21:01;;;;;;;6.75;3.85;;;;;;;23.99;61.50;101622.72;4911027;29;20046;-66
2022/05/19 08:23:31;;;;;;;5.43;4.45;;;;;;;24.32;63.43;101620.94;4909366;29;20039;-66
2022/05/19 08:25:57;;;;;;;6.47;4.57;;;;;;;24.48;58.04;101625.56;4910048;29;20543;-67
2022/05/19 08:28:29;;;;;;;6.13;4.57;;;;;;;24.64;60.24;101633.75;4914503;29;20036;-66
2022/05/19 08:30:58;;;;;;;5.15;3.85;;;;;;;24.79;61.81;101632.06;4915353;29;20406;-66
2022/05/19 08:33:25;;;;;;;9.95;4.78;;;;;;;24.92;60.43;101653.38;4914122;29;20040;-67
2022/05/19 08:35:51;;;;;;;5.68;4.63;;;;;;;24.83;60.46;101639.91;4915053;29;20040;-66
2022/05/19 08:38:18;;;;;;;4.32;3.92;;;;;;;24.94;58.14;101637.69;4914009;29;20044;-66
2022/05/19 08:40:52;;;;;;;8.40;4.63;;;;;;;24.80;58.37;101643.84;4914791;29;20035;-67
2022/05/19 08:43:23;;;;;;;5.32;4.35;;;;;;;24.82;58.08;101632.75;4896231;29;20031;-67
2022/05/19 08:45:53;;;;;;;6.63;4.75;;;;;;;25.32;58.06;101643.47;4895003;29;20445;-66
2022/05/19 08:48:24;;;;;;;6.75;3.95;;;;;;;25.68;54.42;101632.09;4912086;29;20134;-66
2022/05/19 08:50:52;;;;;;;7.38;4.10;;;;;;;26.39;55.93;101631.03;4914352;29;20047;-66
2022/05/19 08:53:26;;;;;;;6.45;4.25;;;;;;;26.03;53.24;101611.63;4912138;29;20130;-66
2022/05/19 08:55:59;;;;;;;4.70;4.03;;;;;;;26.00;52.17;101609.22;4913037;29;20059;-66
2022/05/19 08:59:02;;;;;;;4.32;3.58;;;;;;;26.75;53.23;101597.59;4913461;29;20048;-66
2022/05/19 09:01:41;;;;;;;11.68;4.47;;;;;;;26.81;54.36;101596.88;4912568;29;20831;-66
2022/05/19 09:04:40;;;;;;;7.47;4.32;;;;;;;26.48;51.99;101588.09;4912777;29;20048;-66
2022/05/19 09:10:20;;;;;;;6.30;4.35;;;;;;;26.81;48.57;101592.25;4913680;29;20059;-66
2022/05/19 09:12:52;;;;;;;7.38;4.57;;;;;;;26.91;49.38;101594.72;4913141;29;20519;-66
2022/05/19 09:15:17;;;;;;;6.63;4.82;;;;;;;26.77;51.64;101609.22;4888347;29;20214;-68
2022/05/19 09:17:46;;;;;;;5.45;4.05;;;;;;;26.55;50.00;101610.94;4895567;29;20790;-66
2022/05/19 09:20:15;;;;;;;5.40;4.47;;;;;;;27.42;50.57;101616.81;4877613;29;20055;-67
2022/05/19 09:22:41;;;;;;;7.07;4.72;;;;;;;27.27;47.22;101621.41;4895738;29;20395;-67
2022/05/19 09:25:09;;;;;;;4.70;3.92;;;;;;;27.52;48.20;101611.88;4877420;29;20099;-66
2022/05/19 09:27:38;;;;;;;6.03;4.18;;;;;;;26.92;47.63;101615.59;4884784;29;20088;-67
2022/05/19 09:30:05;;;;;;;5.63;3.70;;;;;;;27.06;45.79;101612.03;4875732;29;20051;-66
2022/05/19 09:32:45;;;;;;;7.63;4.30;;;;;;;27.40;45.65;101613.38;4874408;29;20090;-67
2022/05/19 09:35:30;;;;;;;3.83;3.13;;;;;;;27.22;45.70;101605.56;4874355;29;20040;-67
2022/05/19 09:38:31;;;;;;;5.95;3.40;;;;;;;27.22;46.92;101607.44;4876536;29;20061;-66
2022/05/19 09:41:05;;;;;;;5.70;3.92;;;;;;;27.88;49.13;101611.09;4873290;29;20060;-68
2022/05/19 09:43:35;;;;;;;4.60;2.80;;;;;;;27.55;44.56;101611.47;4876459;29;20044;-67
2022/05/19 09:46:15;;;;;;;5.03;3.30;;;;;;;27.87;45.49;101615.75;4875581;29;20644;-66
2022/05/19 09:48:49;;;;;;;5.53;3.88;;;;;;;27.92;43.16;101612.44;4877259;29;20558;-66
2022/05/19 09:51:19;;;;;;;3.83;3.05;;;;;;;28.08;44.67;101606.69;4873048;29;20040;-67
2022/05/19 09:53:53;;;;;;;3.80;3.40;;;;;;;28.24;44.43;101602.84;4876050;29;20040;-66
2022/05/19 09:56:21;;;;;;;3.42;2.75;;;;;;;28.13;42.72;101601.47;4874940;29;20059;-67
2022/05/19 09:59:02;;;;;;;6.55;3.35;;;;;;;27.85;43.04;101606.84;4875306;29;20041;-67
2022/05/19 10:01:32;;;;;;;5.82;3.15;;;;;;;28.21;43.18;101599.66;4874128;29;20040;-67
2022/05/19 10:04:01;;;;;;;3.22;2.85;;;;;;;28.24;43.32;101600.13;4875712;29;20759;-67
2022/05/19 10:06:46;;;;;;;3.63;3.28;;;;;;;28.39;42.51;101595.44;4875017;29;20044;-66
2022/05/19 10:09:18;;;;;;;5.72;3.40;;;;;;;28.84;44.15;101596.06;4875611;29;20095;-66
2022/05/19 10:12:02;;;;;;;5.60;3.75;;;;;;;28.57;42.72;101595.00;4888660;29;20218;-66
2022/05/19 10:14:30;;;;;;;5.78;3.10;;;;;;;29.00;43.51;101591.34;4877969;29;20046;-67
2022/05/19 10:17:33;;;;;;;3.80;3.50;;;;;;;29.34;41.10;101594.09;4913431;29;20040;-66
2022/05/19 10:20:32;;;;;;;5.57;3.75;;;;;;;29.18;41.58;101586.19;4913853;29;20042;-67
2022/05/19 10:23:14;;;;;;;6.47;3.58;;;;;;;29.33;41.23;101595.16;4912841;29;20098;-67
2022/05/19 10:25:48;;;;;;;6.72;3.70;;;;;;;28.85;40.39;101584.03;4907459;29;20047;-67
2022/05/19 10:31:12;;;;;;;6.70;3.75;;;;;;;28.95;42.01;101567.22;4913527;29;20047;-66
2022/05/19 10:34:19;;;;;;;4.38;3.08;;;;;;;28.42;45.70;101560.44;4897416;29;20421;-66
2022/05/19 10:36:54;;;;;;;4.10;3.35;;;;;;;27.91;42.07;101555.03;4896536;29;20757;-67
2022/05/19 10:39:28;;;;;;;5.15;3.53;;;;;;;27.88;42.80;101537.09;4909897;29;20094;-66
2022/05/19 10:42:06;;;;;;;8.52;3.97;;;;;;;28.07;42.83;101541.09;4896939;29;20107;-66
2022/05/19 10:45:02;;;;;;;4.60;3.00;;;;;;;28.07;45.54;101535.59;4913787;29;20063;-66
2022/05/19 10:47:47;;;;;;;7.00;4.47;;;;;;;28.05;44.45;101521.22;4914143;29;20062;-66
2022/05/19 10:50:32;;;;;;;5.35;3.72;;;;;;;28.40;42.77;101527.69;4911741;29;20035;-67
2022/05/19 10:53:16;;;;;;;5.00;3.95;;;;;;;28.07;42.73;101517.25;4915096;29;20043;-67
2022/05/19 10:56:15;;;;;;;5.15;3.58;;;;;;;29.08;42.35;101520.63;4897563;29;20047;-67
2022/05/19 10:58:56;;;;;;;4.28;3.88;;;;;;;28.58;44.19;101525.31;4914262;29;20058;-66
2022/05/19 11:01:58;;;;;;;5.97;3.50;;;;;;;28.37;45.31;101531.69;4913798;29;20046;-67
2022/05/19 11:04:30;;;;;;;4.63;3.85;;;;;;;28.91;42.15;101524.69;4896657;29;20050;-67
2022/05/19 11:07:02;;;;;;;4.10;3.70;;;;;;;28.84;41.75;101526.56;4895474;29;20446;-67
2022/05/19 11:09:43;;;;;;;6.65;4.28;;;;;;;28.80;41.08;101522.53;4914065;29;20047;-67
2022/05/19 11:12:29;;;;;;;4.73;3.47;;;;;;;29.02;42.55;101528.81;4913670;29;20485;-66
2022/05/19 11:15:14;;;;;;;8.40;4.25;;;;;;;28.98;43.87;101524.78;4896984;29;20055;-66
2022/05/19 11:18:03;;;;;;;5.97;4.28;;;;;;;29.13;41.12;101522.78;4914841;29;20051;-66
2022/05/19 11:20:48;;;;;;;5.68;4.03;;;;;;;29.63;40.12;101505.03;4914485;29;20047;-66
2022/05/19 11:23:28;;;;;;;3.60;3.10;;;;;;;29.62;40.40;101506.09;4894541;29;20921;-66
2022/05/19 11:26:26;;;;;;;5.95;3.60;;;;;;;29.18;40.99;101516.66;4894535;29;20115;-66
2022/05/19 11:29:15;;;;;;;4.72;2.83;;;;;;;29.26;42.99;101503.59;4877122;29;20725;-66
2022/05/19 11:32:03;;;;;;;7.38;3.35;;;;;;;29.45;42.16;101493.72;4893361;29;20059;-66
2022/05/19 11:34:57;;;;;;;3.83;3.17;;;;;;;29.31;42.59;101487.34;4877049;29;20123;-66
2022/05/19 11:37:32;;;;;;;8.30;4.07;;;;;;;29.37;41.79;101480.19;4893347;29;21029;-66
2022/05/19 11:40:26;;;;;;;5.00;3.17;;;;;;;28.60;43.66;101478.47;4892710;29;20783;-66
2022/05/19 11:43:13;;;;;;;3.60;2.78;;;;;;;28.34;41.41;101482.69;4870321;29;20147;-66
2022/05/19 11:45:54;;;;;;;4.18;2.90;;;;;;;27.90;42.31;101487.53;4893899;29;20095;-66
2022/05/19 11:57:27;;;;;;;7.20;4.10;;;;;;;25.84;60.31;101500.84;4910117;29;20090;-65